Time;durP1;ratioP1;P1;durP2;ratioP2;P2;SDS_P1;SDS_P2;PMS_P1;PMS_P2;Temp;Humidity;BMP_temperature;BMP_pressure;BME280_temperature;BME280_humidity;BME280_pressure;Samples;Min_cycle;Max_cycle;Signal;HPM_P1;HPM_P2
2022/01/18 00:04:35;;;;;;;4.05;1.30;;;;;;;-0.45;70.80;101054.52;3219679;87;20957;-70
2022/01/18 00:09:27;;;;;;;4.53;1.27;;;;;;;-0.41;71.12;101068.88;3247078;86;20991;-71
2022/01/18 00:14:27;;;;;;;5.37;1.55;;;;;;;-0.42;71.00;101070.93;3221244;86;21929;-71
2022/01/18 00:19:23;;;;;;;5.17;1.47;;;;;;;-0.41;71.00;101077.83;3267221;86;21005;-70
2022/01/18 00:24:10;;;;;;;3.85;1.02;;;;;;;-0.37;71.07;101089.53;3240009;86;21064;-70
2022/01/18 00:29:11;;;;;;;4.25;1.07;;;;;;;-0.39;70.89;101100.92;3264870;86;20985;-71
2022/01/18 00:34:06;;;;;;;2.45;0.95;;;;;;;-0.40;70.96;101101.69;3205036;86;21014;-70
2022/01/18 00:38:54;;;;;;;5.40;1.82;;;;;;;-0.39;71.01;101091.58;3245689;85;21528;-70
2022/01/18 00:43:46;;;;;;;4.62;1.60;;;;;;;-0.35;70.95;101103.30;3244863;85;21025;-70
2022/01/18 00:48:39;;;;;;;3.25;1.10;;;;;;;-0.34;70.95;101103.77;3280608;84;20989;-70
2022/01/18 00:53:32;;;;;;;3.60;1.42;;;;;;;-0.31;70.96;101120.59;3277108;84;21047;-70
2022/01/18 00:58:23;;;;;;;3.12;0.98;;;;;;;-0.29;71.05;101125.41;3279578;84;21022;-69
2022/01/18 01:03:14;;;;;;;2.53;1.10;;;;;;;-0.25;71.11;101129.56;3253132;84;20935;-70
2022/01/18 01:08:05;;;;;;;5.97;1.75;;;;;;;-0.15;71.13;101154.05;3229724;84;21226;-70
2022/01/18 01:12:56;;;;;;;6.60;2.00;;;;;;;-0.07;71.13;101152.00;3293672;84;20942;-70
2022/01/18 01:18:04;;;;;;;3.62;1.27;;;;;;;0.02;71.16;101158.12;3325698;84;21712;-70
2022/01/18 01:43:19;;;;;;;3.67;1.42;;;;;;;0.17;71.06;101180.48;3302831;85;21012;-70
2022/01/18 01:48:05;;;;;;;6.75;2.37;;;;;;;0.19;70.95;101178.03;3270726;85;20967;-70
2022/01/18 01:52:56;;;;;;;4.42;1.80;;;;;;;0.22;70.93;101180.80;3260631;85;21177;-70
2022/01/18 01:57:48;;;;;;;4.53;2.10;;;;;;;0.25;71.08;101195.45;3268177;85;21519;-69
2022/01/18 02:02:40;;;;;;;4.80;2.40;;;;;;;0.21;71.03;101190.52;3281694;85;20893;-69
2022/01/18 02:07:31;;;;;;;4.70;2.52;;;;;;;0.14;70.83;101198.57;3260639;85;20975;-70
2022/01/18 02:12:22;;;;;;;4.28;2.33;;;;;;;0.05;70.85;101206.91;3287906;85;20979;-70
2022/01/18 02:22:24;;;;;;;7.00;2.27;;;;;;;-0.06;71.05;101210.02;3273229;84;21047;-69
2022/01/18 02:27:16;;;;;;;4.00;2.40;;;;;;;-0.13;70.99;101217.66;3286800;85;20952;-70
2022/01/18 02:32:08;;;;;;;5.53;2.58;;;;;;;-0.26;71.13;101222.73;3240535;85;20994;-69
2022/01/18 02:36:59;;;;;;;5.25;2.60;;;;;;;-0.39;71.31;101227.39;3309236;86;21015;-70
2022/01/18 02:42:02;;;;;;;8.13;3.42;;;;;;;-0.51;71.44;101227.82;3265417;86;21216;-70
2022/01/18 02:46:54;;;;;;;9.38;3.47;;;;;;;-0.66;71.55;101225.06;3279145;86;22075;-69
2022/01/18 02:51:45;;;;;;;7.50;3.00;;;;;;;-0.77;71.76;101234.16;3315411;85;21503;-69
2022/01/18 02:56:47;;;;;;;7.53;3.22;;;;;;;-0.86;71.88;101242.45;3252967;86;21062;-70
2022/01/18 03:06:46;;;;;;;5.83;2.92;;;;;;;-1.02;72.23;101243.37;3310515;85;20992;-70
2022/01/18 03:11:38;;;;;;;5.97;3.40;;;;;;;-1.13;72.27;101249.38;3242221;85;20975;-70
2022/01/18 03:16:29;;;;;;;6.53;4.55;;;;;;;-1.26;72.50;101247.61;3244158;86;21019;-70
2022/01/18 03:21:20;;;;;;;6.37;3.20;;;;;;;-1.33;72.67;101255.19;3288948;85;21047;-70
2022/01/18 03:26:16;;;;;;;8.98;4.35;;;;;;;-1.40;72.83;101263.17;3266935;86;21010;-70
2022/01/18 03:31:04;;;;;;;8.48;3.00;;;;;;;-1.46;72.98;101270.39;3286768;86;21092;-70
2022/01/18 03:35:56;;;;;;;6.22;3.83;;;;;;;-1.51;73.18;101275.53;3265671;86;20973;-71
2022/01/18 03:40:47;;;;;;;4.25;2.92;;;;;;;-1.57;73.26;101278.13;3290533;86;21026;-69
2022/01/18 03:45:44;;;;;;;6.75;3.50;;;;;;;-1.61;73.46;101285.41;3287486;85;21009;-71
2022/01/18 03:50:35;;;;;;;5.73;3.53;;;;;;;-1.67;73.55;101288.39;3239722;86;20994;-70
2022/01/18 03:55:26;;;;;;;9.35;3.50;;;;;;;-1.71;73.78;101283.84;3268270;86;21179;-70
2022/01/18 04:00:23;;;;;;;8.10;3.75;;;;;;;-1.75;73.83;101297.15;3263417;86;20936;-70
2022/01/18 04:05:14;;;;;;;6.37;3.08;;;;;;;-1.74;74.10;101293.80;3291884;86;20991;-69
2022/01/18 04:10:08;;;;;;;6.10;2.77;;;;;;;-1.72;74.28;101292.26;3267193;86;21012;-70
2022/01/18 04:15:00;;;;;;;6.17;3.25;;;;;;;-1.67;74.38;101296.05;3241788;86;21563;-70
2022/01/18 04:30:12;;;;;;;6.05;3.22;;;;;;;-1.45;74.57;101332.09;3251190;86;21516;-70
2022/01/18 04:35:03;;;;;;;6.80;2.90;;;;;;;-1.36;74.58;101340.42;3260859;85;23262;-70
2022/01/18 04:39:54;;;;;;;5.20;2.90;;;;;;;-1.29;74.64;101341.38;3284906;86;21565;-71
2022/01/18 04:49:55;;;;;;;9.93;2.80;;;;;;;-1.12;74.64;101368.56;3263134;86;21102;-70
2022/01/18 04:54:57;;;;;;;6.12;2.40;;;;;;;-1.06;74.62;101367.73;3257957;85;20957;-70
2022/01/18 04:59:39;;;;;;;2.95;1.92;;;;;;;-1.01;74.65;101371.12;3247533;86;21067;-70
2022/01/18 05:04:30;;;;;;;5.85;2.25;;;;;;;-0.96;74.70;101388.06;3243320;85;21579;-70
2022/01/18 05:09:21;;;;;;;5.25;2.62;;;;;;;-0.91;74.67;101388.38;3263443;86;21098;-70
2022/01/18 05:14:25;;;;;;;6.40;2.58;;;;;;;-0.87;74.75;101398.95;3286157;86;21106;-70
2022/01/18 05:24:03;;;;;;;4.62;2.52;;;;;;;-0.81;74.79;101394.28;3289232;85;20989;-69
2022/01/18 05:28:57;;;;;;;7.65;3.02;;;;;;;-0.80;74.78;101396.07;3242399;86;21015;-69
2022/01/18 05:33:48;;;;;;;6.22;3.12;;;;;;;-0.81;74.87;101383.19;3260842;84;21129;-70
2022/01/18 05:38:40;;;;;;;6.87;2.30;;;;;;;-0.85;74.77;101412.71;3306269;86;20965;-69
2022/01/18 05:43:32;;;;;;;9.55;3.12;;;;;;;-0.91;74.94;101411.00;3292233;85;21019;-69
2022/01/18 05:48:24;;;;;;;4.08;1.82;;;;;;;-1.01;75.01;101409.80;3273456;86;20970;-69
2022/01/18 05:53:15;;;;;;;7.20;3.33;;;;;;;-1.12;75.19;101421.77;3277041;86;20988;-70
2022/01/18 05:58:07;;;;;;;4.83;2.60;;;;;;;-1.22;75.34;101412.51;3249421;87;21001;-69
2022/01/18 06:07:49;;;;;;;8.20;3.12;;;;;;;-1.38;75.69;101416.87;3254848;87;21706;-69
2022/01/18 06:12:41;;;;;;;6.25;2.60;;;;;;;-1.42;75.84;101428.86;3209792;86;21008;-70
2022/01/18 06:17:32;;;;;;;5.60;2.05;;;;;;;-1.46;75.96;101434.52;3229786;87;20968;-69
2022/01/18 06:22:23;;;;;;;6.62;2.87;;;;;;;-1.50;76.16;101431.59;3234452;87;21624;-69
2022/01/18 06:27:14;;;;;;;9.33;2.55;;;;;;;-1.52;76.23;101440.80;3208257;87;20964;-70
2022/01/18 06:32:07;;;;;;;3.47;2.50;;;;;;;-1.54;76.38;101444.13;3224914;87;21024;-70
2022/01/18 06:36:58;;;;;;;2.92;2.40;;;;;;;-1.57;76.44;101436.23;3237616;87;21482;-69
2022/01/18 06:41:49;;;;;;;4.15;2.98;;;;;;;-1.56;76.43;101449.88;3219751;87;21555;-70
2022/01/18 06:46:40;;;;;;;4.83;2.35;;;;;;;-1.56;76.74;101449.51;3214099;87;21222;-71
2022/01/18 06:51:32;;;;;;;7.42;3.20;;;;;;;-1.53;76.84;101447.56;3234604;86;21037;-69
2022/01/18 06:56:26;;;;;;;6.67;3.00;;;;;;;-1.48;76.88;101451.76;3228302;87;20980;-69
2022/01/18 07:01:17;;;;;;;8.80;3.10;;;;;;;-1.45;76.89;101463.09;3224445;86;20986;-70
2022/01/18 07:06:08;;;;;;;6.30;2.12;;;;;;;-1.41;77.04;101469.31;3281587;85;20986;-70
2022/01/18 07:11:00;;;;;;;6.72;3.45;;;;;;;-1.39;77.05;101485.23;3211705;86;21893;-69
2022/01/18 07:15:51;;;;;;;4.62;2.42;;;;;;;-1.33;77.05;101489.03;3243879;87;21553;-69
2022/01/18 07:20:42;;;;;;;4.60;2.40;;;;;;;-1.28;77.13;101501.36;3233544;86;20949;-69
2022/01/18 07:25:34;;;;;;;7.90;2.62;;;;;;;-1.21;77.16;101511.27;3232674;86;20972;-69
2022/01/18 07:30:25;;;;;;;6.55;2.85;;;;;;;-1.12;77.13;101507.66;3212153;86;20957;-70
2022/01/18 07:35:16;;;;;;;6.45;2.80;;;;;;;-1.02;77.04;101517.77;3240642;86;21958;-69
2022/01/18 07:40:09;;;;;;;4.85;2.40;;;;;;;-0.90;76.99;101527.64;3214587;86;20965;-69
2022/01/18 07:45:00;;;;;;;5.67;2.77;;;;;;;-0.82;76.93;101538.06;3250140;87;22235;-69
2022/01/18 07:49:51;;;;;;;6.40;2.42;;;;;;;-0.74;76.95;101546.69;3246991;85;21094;-69
2022/01/18 07:54:42;;;;;;;7.40;3.37;;;;;;;-0.61;76.85;101561.79;3246975;86;21094;-68
2022/01/18 07:59:33;;;;;;;7.50;3.25;;;;;;;-0.51;76.77;101577.41;3190865;86;21579;-69
2022/01/18 08:04:24;;;;;;;4.42;2.87;;;;;;;-0.47;76.75;101580.69;3213792;86;21039;-68
2022/01/18 08:09:19;;;;;;;7.87;3.22;;;;;;;-0.32;76.71;101590.27;3247214;86;20987;-69
2022/01/18 08:14:13;;;;;;;7.53;2.95;;;;;;;0.13;76.40;101605.98;3164345;89;20964;-69
2022/01/18 08:19:04;;;;;;;7.58;3.20;;;;;;;0.42;75.90;101598.25;3247833;85;21523;-69
2022/01/18 08:23:55;;;;;;;8.00;3.42;;;;;;;0.73;75.35;101599.66;3249047;85;21032;-70
2022/01/18 08:28:47;;;;;;;5.90;3.22;;;;;;;0.92;75.05;101606.06;3285581;85;21003;-73
2022/01/18 08:33:38;;;;;;;5.67;3.33;;;;;;;1.05;74.93;101622.77;3288211;85;20975;-71
2022/01/18 08:38:31;;;;;;;9.05;4.20;;;;;;;1.28;74.65;101626.05;3277927;85;21544;-73
2022/01/18 08:43:22;;;;;;;7.65;3.25;;;;;;;1.24;74.65;101631.75;3279812;85;21466;-73
2022/01/18 08:48:13;;;;;;;5.62;3.05;;;;;;;1.16;74.57;101649.53;3248163;85;22038;-72
2022/01/18 08:53:04;;;;;;;7.85;3.72;;;;;;;1.24;74.64;101663.78;3259431;85;20971;-72
2022/01/18 08:57:55;;;;;;;4.58;2.98;;;;;;;1.58;74.24;101664.83;3287696;85;20904;-71
2022/01/18 09:02:48;;;;;;;7.25;3.35;;;;;;;1.63;74.22;101670.77;3303095;85;20986;-72
2022/01/18 09:07:40;;;;;;;9.33;3.02;;;;;;;1.64;74.31;101685.73;3284290;84;21252;-73
2022/01/18 09:12:31;;;;;;;6.15;2.83;;;;;;;1.74;74.20;101689.44;3307462;85;21260;-76
2022/01/18 09:17:22;;;;;;;5.97;3.02;;;;;;;2.04;73.74;101696.12;3283236;85;21552;-76
2022/01/18 09:22:13;;;;;;;5.33;2.87;;;;;;;2.28;73.31;101700.73;3259852;85;20952;-73
2022/01/18 09:27:06;;;;;;;5.10;2.40;;;;;;;2.46;72.95;101698.48;3332719;84;20936;-72
2022/01/18 09:31:57;;;;;;;8.63;3.85;;;;;;;2.41;72.91;101719.11;3305758;84;21593;-73
2022/01/18 09:36:48;;;;;;;5.53;2.75;;;;;;;2.36;73.40;101729.46;3258174;85;21022;-75
2022/01/18 09:41:43;;;;;;;6.62;2.72;;;;;;;2.40;73.12;101731.46;3283506;85;20944;-73
2022/01/18 09:46:34;;;;;;;13.90;2.80;;;;;;;2.46;72.83;101739.55;3315981;84;20975;-74
2022/01/18 09:51:26;;;;;;;16.57;3.62;;;;;;;2.57;72.73;101748.84;3313068;85;20956;-82
2022/01/18 09:56:17;;;;;;;6.12;2.65;;;;;;;2.63;72.80;101762.10;3279144;85;20979;-73
2022/01/18 10:01:08;;;;;;;4.67;2.72;;;;;;;2.80;72.36;101759.74;3311452;84;21162;-73
2022/01/18 10:06:01;;;;;;;5.75;3.20;;;;;;;2.82;72.60;101764.58;3262814;85;20956;-74
2022/01/18 10:10:57;;;;;;;8.18;3.90;;;;;;;2.85;72.58;101771.21;3312384;85;21084;-74
2022/01/18 10:16:11;;;;;;;7.08;2.55;;;;;;;2.96;72.47;101780.48;3292103;85;21461;-74
2022/01/18 10:21:06;;;;;;;7.08;3.15;;;;;;;3.15;72.37;101786.80;3271298;85;21036;-79
2022/01/18 10:25:56;;;;;;;4.95;2.80;;;;;;;3.19;72.17;101779.41;3303073;85;21282;-78
2022/01/18 10:30:49;;;;;;;5.33;2.83;;;;;;;3.28;71.21;101802.23;3316798;86;22503;-74
2022/01/18 10:36:13;;;;;;;7.17;3.77;;;;;;;3.33;70.79;101799.97;3291147;86;20929;-72
2022/01/18 10:41:33;;;;;;;6.20;3.00;;;;;;;3.73;70.69;101802.46;3299672;85;21047;-72
2022/01/18 10:46:30;;;;;;;6.17;3.47;;;;;;;4.26;70.10;101807.83;3292848;86;22156;-72
2022/01/18 10:51:27;;;;;;;7.12;3.70;;;;;;;4.63;69.68;101813.85;3252368;86;21316;-74
2022/01/18 10:56:18;;;;;;;9.73;5.63;;;;;;;5.46;67.94;101814.72;3209575;87;20983;-73
2022/01/18 11:01:18;;;;;;;6.83;4.22;;;;;;;5.09;68.06;101816.52;3229185;87;21548;-73
2022/01/18 11:06:16;;;;;;;7.08;3.83;;;;;;;5.14;68.01;101822.82;3259736;87;21048;-73
2022/01/18 11:11:12;;;;;;;10.18;4.22;;;;;;;5.14;67.52;101827.98;3266226;87;21046;-72
2022/01/18 11:16:12;;;;;;;9.83;3.90;;;;;;;4.72;68.00;101833.70;3280429;87;21003;-73
2022/01/18 11:21:01;;;;;;;5.85;3.40;;;;;;;6.70;65.31;101828.16;3264294;86;21019;-79
2022/01/18 11:25:52;;;;;;;5.95;3.60;;;;;;;7.48;65.48;101834.11;3241976;87;21950;-74
2022/01/18 11:30:47;;;;;;;6.08;3.90;;;;;;;8.81;62.89;101825.36;3244855;87;21010;-77
2022/01/18 11:36:08;;;;;;;4.85;2.98;;;;;;;9.72;61.15;101824.67;3274709;87;21007;-72
2022/01/18 11:40:59;;;;;;;5.35;3.08;;;;;;;10.97;59.62;101817.00;3238993;86;21150;-76
2022/01/18 11:45:50;;;;;;;4.33;3.17;;;;;;;11.70;58.51;101808.42;3245008;87;20920;-81
2022/01/18 11:50:50;;;;;;;3.58;2.70;;;;;;;11.92;58.79;101811.70;3243265;85;21523;-76
2022/01/18 11:55:45;;;;;;;3.83;2.47;;;;;;;11.09;58.37;101811.71;3268979;86;20956;-77
2022/01/18 12:00:55;;;;;;;5.78;2.47;;;;;;;9.29;59.39;101829.48;3288890;84;20905;-72
2022/01/18 12:05:46;;;;;;;6.10;2.67;;;;;;;8.43;60.00;101824.20;3173909;89;21699;-72
2022/01/18 12:10:43;;;;;;;4.05;2.37;;;;;;;7.63;60.60;101842.58;3152138;88;21571;-71
2022/01/18 12:15:43;;;;;;;6.83;3.03;;;;;;;6.73;61.33;101854.16;3173376;89;21055;-71
2022/01/18 12:20:44;;;;;;;4.85;2.22;;;;;;;6.10;61.83;101863.41;3198476;89;21007;-72
2022/01/18 12:26:00;;;;;;;6.45;2.50;;;;;;;5.50;62.13;101870.83;3154847;88;21023;-72
2022/01/18 12:31:06;;;;;;;6.58;3.20;;;;;;;4.86;62.86;101869.31;3092337;91;21018;-71
2022/01/18 12:35:45;;;;;;;5.95;2.37;;;;;;;4.44;63.97;101878.45;3083174;91;21039;-71
2022/01/18 12:40:43;;;;;;;6.30;2.42;;;;;;;4.24;64.52;101886.63;3120329;91;21147;-71
2022/01/18 12:45:36;;;;;;;9.88;2.77;;;;;;;4.19;65.07;101885.95;3123627;90;21043;-71
2022/01/18 12:50:47;;;;;;;5.87;3.12;;;;;;;4.35;65.03;101899.78;3098883;91;21064;-72
2022/01/18 12:56:01;;;;;;;5.97;3.35;;;;;;;4.37;65.17;101894.33;3105255;89;21605;-71
2022/01/18 13:01:00;;;;;;;3.87;2.92;;;;;;;4.34;65.23;101897.99;3098586;89;21062;-73
2022/01/18 13:05:59;;;;;;;6.55;2.80;;;;;;;4.20;65.67;101900.63;3202912;85;20932;-73
2022/01/18 13:10:52;;;;;;;5.20;3.08;;;;;;;3.99;66.13;101907.02;3296063;84;21452;-72
2022/01/18 13:26:02;;;;;;;8.10;3.25;;;;;;;3.29;67.31;101915.84;3222790;87;20149;-73
2022/01/18 13:30:58;;;;;;;7.03;3.55;;;;;;;3.11;67.84;101928.34;3197232;87;21008;-71
2022/01/18 13:35:46;;;;;;;5.15;3.02;;;;;;;3.10;68.17;101939.84;3185256;87;21046;-71
2022/01/18 13:40:41;;;;;;;5.95;3.47;;;;;;;3.05;68.26;101945.53;3214929;87;21063;-71
2022/01/18 13:45:32;;;;;;;7.33;3.77;;;;;;;2.96;68.43;101955.20;3196937;88;21409;-73
2022/01/18 13:50:40;;;;;;;6.58;3.60;;;;;;;2.87;68.64;101958.44;3176386;87;21766;-71
2022/01/18 13:55:33;;;;;;;7.60;4.03;;;;;;;2.78;68.90;101959.09;3189898;87;21019;-70
2022/01/18 14:00:26;;;;;;;11.60;5.42;;;;;;;2.70;69.28;101965.37;3224305;86;20983;-72
2022/01/18 14:05:22;;;;;;;9.28;3.77;;;;;;;2.66;69.33;101967.75;3270887;86;21348;-73
2022/01/18 14:10:14;;;;;;;8.20;4.60;;;;;;;2.60;69.49;101980.55;3233962;84;21516;-77
2022/01/18 14:15:07;;;;;;;8.45;4.33;;;;;;;2.57;69.70;101986.34;3259124;86;20974;-76
2022/01/18 14:20:13;;;;;;;8.88;3.95;;;;;;;2.58;69.89;101989.83;3232477;84;21654;-72
2022/01/18 14:25:05;;;;;;;8.93;4.25;;;;;;;2.57;69.93;101995.33;3260741;85;20979;-71
2022/01/18 14:30:04;;;;;;;7.20;3.58;;;;;;;2.57;69.94;101995.33;3267729;86;22140;-73
2022/01/18 14:35:00;;;;;;;6.10;3.85;;;;;;;2.52;70.02;102005.67;3268947;86;21670;-74
2022/01/18 14:40:00;;;;;;;8.13;3.80;;;;;;;2.41;70.07;102005.31;3245176;85;21480;-74
2022/01/18 14:45:08;;;;;;;4.80;3.05;;;;;;;2.28;70.27;102010.86;3317125;85;21040;-74
2022/01/18 14:50:01;;;;;;;4.78;3.50;;;;;;;2.14;70.43;102010.67;3257082;86;20992;-73
2022/01/18 14:54:54;;;;;;;6.95;3.87;;;;;;;1.97;70.67;102008.16;3267642;85;20991;-72
2022/01/18 14:59:45;;;;;;;8.13;4.95;;;;;;;1.78;70.87;102008.11;3291048;85;22242;-79
2022/01/18 15:04:39;;;;;;;9.48;4.58;;;;;;;1.61;71.18;102002.13;3292298;85;21052;-72
2022/01/18 15:09:30;;;;;;;10.13;4.92;;;;;;;1.46;71.41;102005.34;3276060;85;20928;-74
2022/01/18 15:14:21;;;;;;;11.22;5.50;;;;;;;1.29;71.60;102013.47;3245282;85;20999;-73
2022/01/18 15:19:12;;;;;;;12.35;7.03;;;;;;;1.12;71.91;102011.78;3251210;85;21521;-72
2022/01/18 15:24:04;;;;;;;12.43;7.00;;;;;;;1.01;72.29;102021.61;3326079;84;21619;-73
2022/01/18 15:28:56;;;;;;;13.68;8.05;;;;;;;0.90;72.49;102030.14;3258841;85;21062;-73
2022/01/18 15:33:47;;;;;;;17.55;7.55;;;;;;;0.79;72.85;102031.88;3292936;84;21457;-74
2022/01/18 15:38:38;;;;;;;12.73;6.30;;;;;;;0.67;73.03;102025.41;3310435;86;21082;-74
2022/01/18 15:43:29;;;;;;;15.85;7.42;;;;;;;0.59;73.13;102051.17;3301042;85;21124;-74
2022/01/18 15:48:20;;;;;;;16.60;6.78;;;;;;;0.47;73.33;102049.84;3295159;85;21009;-74
2022/01/18 15:53:12;;;;;;;14.10;6.15;;;;;;;0.36;73.64;102057.95;3261272;85;32565;-75
2022/01/18 15:58:03;;;;;;;16.17;7.70;;;;;;;0.26;73.74;102047.34;3283614;84;20955;-74
2022/01/18 16:02:54;;;;;;;10.18;6.12;;;;;;;0.19;74.02;102047.63;3282764;85;20967;-73
2022/01/18 16:07:45;;;;;;;10.98;6.37;;;;;;;0.11;74.22;102060.20;3296766;84;22182;-73
2022/01/18 16:12:37;;;;;;;12.80;6.15;;;;;;;0.04;74.45;102063.04;3282099;84;21191;-78
2022/01/18 16:17:28;;;;;;;15.15;6.65;;;;;;;-0.05;74.35;102073.02;3279074;85;20999;-76
2022/01/18 16:22:20;;;;;;;15.53;7.45;;;;;;;-0.19;74.02;102071.00;3285942;84;21047;-73
2022/01/18 16:27:11;;;;;;;11.55;7.45;;;;;;;-0.32;74.37;102082.24;3308541;85;20966;-74
2022/01/18 16:32:03;;;;;;;14.35;7.08;;;;;;;-0.43;74.88;102077.16;3339625;85;21003;-74
2022/01/18 16:36:54;;;;;;;13.25;6.35;;;;;;;-0.47;75.08;102084.03;3328243;85;21105;-73
2022/01/18 16:41:47;;;;;;;11.38;7.22;;;;;;;-0.56;74.78;102083.27;3278904;85;22338;-73
2022/01/18 16:46:38;;;;;;;13.00;8.00;;;;;;;-0.70;74.80;102085.06;3307986;84;20900;-72
2022/01/18 16:51:29;;;;;;;14.10;6.78;;;;;;;-0.84;75.05;102080.97;3322757;84;21421;-73
2022/01/18 16:56:20;;;;;;;15.90;7.55;;;;;;;-0.88;75.59;102078.90;3314724;85;21063;-72
2022/01/18 17:01:13;;;;;;;19.00;9.38;;;;;;;-0.91;75.88;102099.09;3279577;85;21314;-72
2022/01/18 17:06:04;;;;;;;14.93;9.73;;;;;;;-0.98;76.01;102092.95;3263210;86;21070;-73
2022/01/18 17:10:55;;;;;;;15.23;7.55;;;;;;;-0.99;76.23;102112.84;3243756;86;21006;-70
2022/01/18 17:15:46;;;;;;;13.72;6.62;;;;;;;-0.98;76.80;102087.84;3312731;85;21285;-71
2022/01/18 17:20:37;;;;;;;18.92;7.40;;;;;;;-0.93;76.85;102076.72;3264885;84;21516;-70
2022/01/18 17:25:30;;;;;;;18.07;6.80;;;;;;;-0.91;77.14;102079.02;3279487;85;21029;-71
2022/01/18 17:30:21;;;;;;;18.17;8.13;;;;;;;-0.88;77.33;102081.45;3317078;83;20936;-71
2022/01/18 17:35:12;;;;;;;14.80;7.60;;;;;;;-0.85;77.41;102097.44;3238436;85;21449;-72
2022/01/18 17:40:06;;;;;;;20.48;8.98;;;;;;;-0.92;77.39;102099.84;3244895;84;21017;-72
2022/01/18 17:44:57;;;;;;;19.45;10.48;;;;;;;-0.91;77.69;102100.37;3271858;86;21001;-72
2022/01/18 17:49:48;;;;;;;22.13;11.00;;;;;;;-0.90;77.60;102108.91;3264708;85;21882;-72
2022/01/18 17:54:39;;;;;;;18.20;9.25;;;;;;;-0.92;77.76;102104.95;3205301;85;21066;-71
2022/01/18 17:59:30;;;;;;;20.20;11.30;;;;;;;-0.94;77.94;102111.59;3206127;86;20944;-72
2022/01/18 18:04:21;;;;;;;21.82;12.88;;;;;;;-0.93;78.07;102124.87;3250953;85;21043;-72
2022/01/18 18:09:12;;;;;;;20.72;12.63;;;;;;;-0.90;78.22;102134.45;3296298;86;21447;-71
2022/01/18 18:14:03;;;;;;;27.10;13.18;;;;;;;-0.88;78.41;102131.25;3270558;86;21721;-72
2022/01/18 18:18:54;;;;;;;28.25;14.05;;;;;;;-0.88;78.35;102129.09;3274216;86;20987;-72
2022/01/18 18:23:46;;;;;;;18.92;12.35;;;;;;;-0.88;78.50;102132.52;3270292;86;20948;-72
2022/01/18 18:28:40;;;;;;;23.27;13.68;;;;;;;-0.87;78.66;102124.50;3276617;86;21441;-72
2022/01/18 18:33:33;;;;;;;25.20;12.75;;;;;;;-0.89;78.84;102126.92;3266802;85;21055;-73
2022/01/18 18:38:30;;;;;;;23.00;12.18;;;;;;;-0.90;79.00;102116.18;3259351;85;21056;-71
2022/01/18 18:43:29;;;;;;;20.43;12.07;;;;;;;-0.90;79.21;102095.75;3269480;85;21508;-71
2022/01/18 18:48:11;;;;;;;25.85;13.93;;;;;;;-0.91;79.37;102100.37;3269330;86;20977;-71
2022/01/18 18:53:04;;;;;;;20.80;13.22;;;;;;;-0.87;79.52;102112.63;3256801;85;21294;-72
2022/01/18 19:08:04;;;;;;;29.37;15.10;;;;;;;-0.51;80.05;102159.05;3244674;86;21652;-73
2022/01/18 19:12:59;;;;;;;31.25;18.80;;;;;;;-0.40;80.19;102146.78;3271303;85;21496;-72
2022/01/18 19:17:51;;;;;;;32.90;15.75;;;;;;;-0.31;80.12;102137.72;3251817;85;21253;-72
2022/01/18 19:22:43;;;;;;;30.43;17.82;;;;;;;-0.22;80.19;102141.92;3266862;85;21039;-72
2022/01/18 19:27:34;;;;;;;36.93;21.60;;;;;;;-0.13;80.14;102137.08;3243513;85;21029;-73
2022/01/18 19:32:25;;;;;;;30.48;17.35;;;;;;;-0.08;80.08;102144.35;3312683;85;21086;-72
2022/01/18 19:37:16;;;;;;;31.60;21.00;;;;;;;-0.04;80.16;102163.00;3264797;85;20975;-72
2022/01/18 19:42:12;;;;;;;32.85;19.87;;;;;;;0.01;80.17;102153.56;3279819;85;21041;-72
2022/01/18 19:47:00;;;;;;;30.02;16.82;;;;;;;0.05;80.11;102144.09;3221658;85;21979;-72
2022/01/18 19:51:51;;;;;;;32.75;16.48;;;;;;;0.06;80.09;102148.05;3257284;85;20989;-72
2022/01/18 19:56:42;;;;;;;24.15;14.93;;;;;;;0.10;80.09;102172.22;3315514;85;21492;-72
2022/01/18 20:01:34;;;;;;;20.02;12.93;;;;;;;0.13;80.04;102188.71;3257924;85;21026;-72
2022/01/18 20:06:25;;;;;;;21.20;12.82;;;;;;;0.16;79.94;102191.89;3277797;85;21980;-72
2022/01/18 20:11:16;;;;;;;28.52;15.85;;;;;;;0.17;79.90;102187.30;3282057;86;21024;-72
2022/01/18 20:16:07;;;;;;;37.73;18.45;;;;;;;0.19;79.87;102185.36;3270166;85;21015;-72
2022/01/18 20:20:58;;;;;;;29.90;17.92;;;;;;;0.22;79.78;102160.83;3245474;85;21186;-72
2022/01/18 20:25:58;;;;;;;34.43;18.98;;;;;;;0.25;79.78;102147.91;3252512;85;20966;-73
2022/01/18 20:30:49;;;;;;;31.02;19.32;;;;;;;0.24;79.67;102138.83;3252613;85;20990;-73
2022/01/18 20:35:40;;;;;;;41.15;21.15;;;;;;;0.23;79.61;102144.30;3244023;85;21522;-72
2022/01/18 20:40:35;;;;;;;36.83;21.00;;;;;;;0.23;79.59;102144.30;3276517;84;21427;-72
2022/01/18 20:45:24;;;;;;;31.70;20.25;;;;;;;0.24;79.62;102145.22;3255123;85;21848;-73
2022/01/18 20:50:16;;;;;;;36.50;20.75;;;;;;;0.23;79.59;102144.30;3249305;85;21066;-73
2022/01/18 20:55:08;;;;;;;31.62;19.45;;;;;;;0.22;79.58;102137.42;3288186;86;21050;-72
2022/01/18 20:59:59;;;;;;;33.88;20.75;;;;;;;0.22;79.53;102141.25;3237217;85;21053;-72
2022/01/18 21:04:50;;;;;;;42.08;22.50;;;;;;;0.20;79.42;102128.73;3265004;85;21696;-73
2022/01/18 21:09:41;;;;;;;33.78;19.60;;;;;;;0.20;79.46;102115.94;3288626;85;21054;-73
2022/01/18 21:19:25;;;;;;;31.37;15.55;;;;;;;0.18;79.44;102115.81;3265522;86;21497;-72
2022/01/18 21:24:16;;;;;;;36.83;19.42;;;;;;;0.15;79.31;102114.67;3238621;85;21004;-74
2022/01/18 21:29:08;;;;;;;36.25;19.07;;;;;;;0.13;79.32;102116.21;3306375;85;21891;-72
2022/01/18 21:34:03;;;;;;;35.68;18.27;;;;;;;0.13;79.28;102100.47;3252425;86;20987;-73
2022/01/18 21:38:52;;;;;;;34.67;19.90;;;;;;;0.12;79.19;102106.73;3287454;85;21464;-72
2022/01/18 21:43:43;;;;;;;34.65;17.67;;;;;;;0.12;79.21;102105.45;3249264;85;21098;-73
2022/01/18 21:48:34;;;;;;;37.42;20.80;;;;;;;0.10;79.18;102106.61;3273496;85;20991;-73
2022/01/18 21:53:26;;;;;;;29.70;17.42;;;;;;;0.09;79.11;102096.25;3259036;86;21660;-72
2022/01/18 21:58:17;;;;;;;37.08;18.77;;;;;;;0.07;79.26;102081.17;3314645;85;21016;-73
2022/01/18 22:03:08;;;;;;;34.05;18.15;;;;;;;0.07;79.15;102065.83;3291221;85;21016;-73
2022/01/18 22:07:59;;;;;;;31.50;18.27;;;;;;;0.07;79.21;102073.50;3265152;85;21007;-73
2022/01/18 22:12:51;;;;;;;32.83;18.52;;;;;;;0.03;79.13;102060.84;3274017;85;21528;-73
2022/01/18 22:17:42;;;;;;;36.13;18.50;;;;;;;0.03;79.21;102058.29;3319962;85;21577;-72
2022/01/18 22:22:33;;;;;;;35.50;18.73;;;;;;;0.04;79.24;102065.59;3244152;84;21063;-73
2022/01/18 22:27:24;;;;;;;39.92;16.80;;;;;;;0.04;79.18;102059.20;3265603;85;21169;-73
2022/01/18 22:32:15;;;;;;;31.00;18.70;;;;;;;0.05;79.23;102063.53;3264385;85;21264;-73
2022/01/18 22:37:07;;;;;;;33.85;18.30;;;;;;;0.04;79.19;102057.92;3247948;85;21509;-73
2022/01/18 22:41:58;;;;;;;34.35;18.87;;;;;;;0.04;79.18;102061.37;3259771;84;21684;-73
2022/01/18 22:46:50;;;;;;;37.20;17.42;;;;;;;0.05;79.26;102068.64;3267699;85;20947;-73
2022/01/18 22:51:41;;;;;;;34.40;19.23;;;;;;;0.01;79.09;102050.88;3292272;86;21047;-73
2022/01/18 22:56:32;;;;;;;29.70;18.87;;;;;;;-0.03;79.15;102041.19;3228059;87;21509;-73
2022/01/18 23:01:24;;;;;;;33.38;18.57;;;;;;;-0.04;79.27;102032.59;3197543;87;20987;-73
2022/01/18 23:06:15;;;;;;;31.82;17.55;;;;;;;-0.08;79.20;102034.41;3210424;86;22770;-73
2022/01/18 23:11:06;;;;;;;34.50;18.90;;;;;;;-0.08;79.27;102045.91;3275631;86;21273;-73
2022/01/18 23:15:59;;;;;;;33.83;18.02;;;;;;;-0.10;79.32;102050.41;3229273;87;20917;-72
2022/01/18 23:20:53;;;;;;;42.93;20.68;;;;;;;-0.11;79.35;102067.39;3237635;87;21042;-73
2022/01/18 23:25:45;;;;;;;29.20;16.40;;;;;;;-0.16;79.39;102061.03;3208731;87;20981;-72
2022/01/18 23:30:36;;;;;;;32.35;16.55;;;;;;;-0.18;79.42;102047.20;3227648;86;21118;-72
2022/01/18 23:35:29;;;;;;;38.38;19.48;;;;;;;-0.18;79.61;102041.20;3202106;87;21013;-73
2022/01/18 23:45:15;;;;;;;35.85;20.55;;;;;;;-0.26;79.57;102027.81;3183366;87;20953;-73
2022/01/18 23:50:06;;;;;;;31.97;19.42;;;;;;;-0.30;79.62;102019.39;3217147;86;21028;-72
2022/01/18 23:54:57;;;;;;;39.00;20.10;;;;;;;-0.32;79.58;102017.07;3218748;86;21328;-72
2022/01/18 23:59:51;;;;;;;43.25;21.52;;;;;;;-0.39;79.44;102030.64;3227451;86;21003;-72
